createdAt,value
2023-04-06T00:04:18.412Z,63.28
2023-04-06T00:09:23.890Z,63.16
2023-04-06T00:14:31.036Z,63.61
2023-04-06T00:19:36.745Z,64.04
2023-04-06T00:24:43.723Z,64.91
2023-04-06T00:29:51.046Z,65.47
2023-04-06T00:34:58.081Z,65.73
2023-04-06T00:45:47.052Z,66.58
2023-04-06T00:50:54.724Z,67.06
2023-04-06T00:56:02.114Z,67.69
2023-04-06T01:01:09.798Z,67.96
2023-04-06T01:06:17.435Z,68.17
2023-04-06T01:11:25.784Z,68.03
2023-04-06T01:16:33.125Z,68.21
2023-04-06T01:21:40.352Z,68.37
2023-04-06T01:26:50.223Z,68.82
2023-04-06T01:31:57.815Z,69.29
2023-04-06T01:37:05.431Z,69.53
2023-04-06T01:42:12.984Z,69.97
2023-04-06T01:47:20.498Z,69.89
2023-04-06T01:52:28.060Z,69.73
2023-04-06T01:57:36.381Z,70.11
2023-04-06T02:02:43.928Z,70.17
2023-04-06T02:07:53.316Z,69.91
2023-04-06T02:13:01.560Z,70.06
2023-04-06T02:18:09.653Z,70.23
2023-04-06T02:23:17.402Z,70.40
2023-04-06T02:28:25.239Z,70.39
2023-04-06T02:33:33.148Z,70.44
2023-04-06T02:38:40.942Z,70.19
2023-04-06T02:43:49.205Z,69.93
2023-04-06T02:48:57.610Z,69.78
2023-04-06T02:54:05.901Z,69.53
2023-04-06T02:59:13.520Z,69.48
2023-04-06T03:04:22.953Z,69.44
2023-04-06T03:09:30.691Z,69.44
2023-04-06T03:14:38.566Z,69.54
2023-04-06T03:19:46.135Z,69.71
2023-04-06T03:24:53.684Z,69.83
2023-04-06T03:30:01.894Z,69.74
2023-04-06T03:35:11.350Z,69.54
2023-04-06T03:40:19.846Z,69.36
2023-04-06T03:45:27.625Z,69.35
2023-04-06T03:50:35.238Z,69.21
2023-04-06T04:05:39.761Z,69.36
2023-04-06T04:10:47.861Z,69.50
2023-04-06T04:15:55.493Z,69.33
2023-04-06T04:21:03.085Z,69.34
2023-04-06T04:26:11.924Z,69.34
2023-04-06T04:31:21.361Z,69.31
2023-04-06T04:36:29.524Z,69.50
2023-04-06T04:41:39.295Z,69.41
2023-04-06T04:46:46.685Z,69.51
2023-04-06T04:51:54.440Z,69.37
2023-04-06T04:57:02.013Z,69.55
2023-04-06T05:02:09.760Z,69.77
2023-04-06T05:07:19.929Z,69.86
2023-04-06T05:12:28.947Z,69.93
2023-04-06T05:17:36.574Z,69.81
2023-04-06T05:22:43.950Z,69.96
2023-04-06T05:27:51.616Z,69.55
2023-04-06T05:32:58.955Z,68.92
2023-04-06T05:38:06.396Z,69.02
2023-04-06T05:43:13.806Z,68.70
2023-04-06T05:54:12.041Z,68.11
2023-04-06T05:59:16.395Z,67.99
2023-04-06T06:04:20.645Z,68.07
2023-04-06T06:09:25.075Z,67.75
2023-04-06T06:14:29.516Z,67.73
2023-04-06T06:19:33.316Z,67.24
2023-04-06T06:24:37.192Z,67.18
2023-04-06T06:29:41.114Z,66.92
2023-04-06T06:34:44.988Z,66.87
2023-04-06T06:39:48.877Z,65.99
2023-04-06T06:44:53.261Z,65.44
2023-04-06T06:54:37.142Z,64.13
2023-04-06T06:59:44.469Z,63.27
2023-04-06T07:04:54.492Z,62.76
2023-04-06T07:10:02.327Z,62.78
2023-04-06T07:15:11.783Z,61.49
2023-04-06T07:20:20.004Z,61.53
2023-04-06T07:25:27.606Z,61.06
2023-04-06T07:30:36.977Z,60.70
2023-04-06T07:35:44.797Z,61.21
2023-04-06T07:40:52.715Z,60.46
2023-04-06T07:46:01.441Z,60.13
2023-04-06T07:51:10.252Z,59.84
2023-04-06T07:56:18.076Z,59.88
2023-04-06T08:01:26.396Z,60.14
2023-04-06T08:06:33.914Z,60.00
2023-04-06T08:11:41.840Z,59.64
2023-04-06T08:16:49.341Z,59.34
2023-04-06T08:21:57.556Z,59.08
2023-04-06T08:27:05.318Z,57.56
2023-04-06T08:32:12.880Z,57.18
2023-04-06T08:37:20.172Z,56.87
2023-04-06T08:42:31.257Z,56.01
2023-04-06T08:47:40.479Z,56.39
2023-04-06T08:52:50.782Z,56.48
2023-04-06T08:57:59.200Z,55.75
2023-04-06T09:03:08.758Z,56.08
2023-04-06T09:08:16.621Z,56.07
2023-04-06T09:13:24.082Z,56.47
2023-04-06T09:18:35.762Z,56.38
2023-04-06T09:23:43.712Z,56.87
2023-04-06T09:28:52.684Z,56.78
2023-04-06T09:34:01.423Z,56.99
2023-04-06T09:39:09.338Z,57.05
2023-04-06T09:44:17.227Z,57.10
2023-04-06T09:49:26.886Z,57.63
2023-04-06T09:54:35.232Z,58.53
2023-04-06T09:59:53.344Z,59.52
2023-04-06T10:05:08.067Z,60.54
2023-04-06T10:10:17.138Z,61.15
2023-04-06T10:15:27.458Z,61.63
2023-04-06T10:20:43.274Z,62.50
2023-04-06T10:25:59.160Z,63.98
2023-04-06T10:31:09.638Z,63.93
2023-04-06T10:36:24.534Z,65.19
2023-04-06T10:41:38.290Z,66.38
2023-04-06T10:46:58.265Z,67.20
2023-04-06T10:52:08.557Z,68.11
2023-04-06T10:57:16.550Z,68.66
2023-04-06T11:02:27.170Z,69.09
2023-04-06T11:07:36.107Z,69.35
2023-04-06T11:12:43.796Z,70.17
2023-04-06T11:17:51.595Z,69.99
2023-04-06T11:23:00.353Z,70.66
2023-04-06T11:28:07.875Z,72.02
2023-04-06T11:33:22.234Z,73.19
2023-04-06T11:38:29.643Z,74.28
2023-04-06T11:43:37.150Z,75.79
2023-04-06T11:54:08.003Z,78.00
2023-04-06T11:59:15.529Z,78.91
2023-04-06T12:04:23.101Z,78.88
2023-04-06T12:09:31.158Z,79.50
2023-04-06T12:14:38.858Z,80.67
2023-04-06T12:19:45.177Z,81.56
2023-04-06T12:24:52.749Z,82.52
2023-04-06T12:30:00.303Z,83.80
2023-04-06T12:35:10.135Z,84.31
2023-04-06T12:40:18.928Z,84.66
2023-04-06T12:45:26.760Z,84.98
2023-04-06T12:50:34.468Z,85.40
2023-04-06T12:55:43.180Z,85.78
2023-04-06T13:00:51.387Z,86.45
2023-04-06T13:05:58.943Z,86.18
2023-04-06T13:11:09.492Z,87.38
2023-04-06T13:16:18.232Z,88.27
2023-04-06T13:21:26.273Z,89.05
2023-04-06T13:26:34.486Z,89.67
2023-04-06T13:31:42.746Z,90.28
2023-04-06T13:36:50.882Z,90.44
2023-04-06T13:41:59.073Z,90.83
2023-04-06T13:47:07.190Z,91.11
2023-04-06T13:52:14.778Z,91.09
2023-04-06T13:57:22.828Z,91.16
2023-04-06T14:02:30.334Z,91.41
2023-04-06T14:07:38.320Z,91.34
2023-04-06T14:12:47.998Z,91.47
2023-04-06T14:17:55.939Z,91.37
2023-04-06T14:23:05.234Z,91.15
2023-04-06T14:28:12.466Z,90.81
2023-04-06T14:33:18.584Z,90.78
2023-04-06T14:38:26.225Z,90.38
2023-04-06T14:43:33.692Z,90.22
2023-04-06T14:48:41.703Z,89.96
2023-04-06T14:53:49.220Z,90.15
2023-04-06T14:58:59.922Z,90.09
2023-04-06T15:04:09.126Z,90.30
2023-04-06T15:09:17.433Z,90.34
2023-04-06T15:14:25.615Z,90.58
2023-04-06T15:19:33.086Z,90.50
2023-04-06T15:24:41.301Z,90.86
2023-04-06T15:29:49.958Z,90.69
2023-04-06T15:35:00.148Z,90.71
2023-04-06T15:40:09.927Z,91.12
2023-04-06T15:45:18.174Z,91.61
2023-04-06T15:50:26.205Z,91.69
2023-04-06T15:55:34.686Z,92.06
2023-04-06T16:00:42.780Z,92.16
2023-04-06T16:11:01.961Z,92.57
2023-04-06T16:16:11.130Z,92.58
2023-04-06T16:21:20.067Z,93.16
2023-04-06T16:26:28.264Z,93.20
2023-04-06T16:31:35.666Z,93.33
2023-04-06T16:36:43.806Z,93.87
2023-04-06T16:41:51.834Z,94.25
2023-04-06T16:47:00.433Z,94.31
2023-04-06T16:52:08.494Z,94.44
2023-04-06T16:57:16.689Z,94.57
2023-04-06T17:02:24.303Z,95.14
2023-04-06T17:07:33.274Z,95.66
2023-04-06T17:12:40.482Z,95.79
2023-04-06T17:17:47.148Z,96.44
2023-04-06T17:22:55.177Z,96.87
2023-04-06T17:28:03.015Z,96.57
2023-04-06T17:33:10.804Z,96.85
2023-04-06T17:38:18.400Z,96.75
2023-04-06T17:43:26.201Z,97.24
2023-04-06T17:48:33.719Z,97.17
2023-04-06T17:53:41.686Z,97.00
2023-04-06T18:03:56.654Z,97.80
2023-04-06T18:09:04.914Z,97.94
2023-04-06T18:14:14.019Z,97.80
2023-04-06T18:19:21.832Z,97.84
2023-04-06T18:24:41.342Z,97.84
2023-04-06T18:29:50.671Z,97.90
2023-04-06T18:34:59.133Z,97.96
2023-04-06T18:40:08.703Z,97.69
2023-04-06T18:45:16.545Z,97.45
2023-04-06T18:50:23.852Z,97.79
2023-04-06T18:55:33.678Z,97.92
2023-04-06T19:00:43.632Z,97.96
2023-04-06T19:05:51.191Z,98.11
2023-04-06T19:10:58.510Z,97.86
2023-04-06T19:16:04.463Z,97.73
2023-04-06T19:21:19.001Z,97.90
2023-04-06T19:26:28.341Z,97.79
2023-04-06T19:31:36.203Z,97.55
2023-04-06T19:36:44.023Z,97.86
2023-04-06T19:41:53.099Z,97.53
2023-04-06T19:52:45.953Z,97.34
2023-04-06T19:57:53.343Z,97.41
2023-04-06T20:03:01.534Z,97.60
2023-04-06T20:08:09.279Z,97.79
2023-04-06T20:13:17.719Z,98.09
2023-04-06T20:18:25.231Z,98.06
2023-04-06T20:23:35.431Z,98.53
2023-04-06T20:28:43.008Z,99.00
2023-04-06T20:33:50.439Z,99.10
2023-04-06T20:38:58.435Z,99.43
2023-04-06T20:44:06.934Z,99.47
2023-04-06T20:49:15.396Z,99.09
2023-04-06T20:54:22.931Z,99.66
2023-04-06T20:59:30.714Z,99.89
2023-04-06T21:04:39.451Z,99.93
2023-04-06T21:09:46.826Z,99.98
2023-04-06T21:14:54.282Z,99.92
2023-04-06T21:20:01.622Z,99.83
2023-04-06T21:25:12.268Z,99.75
2023-04-06T21:30:20.730Z,99.67
2023-04-06T21:35:27.848Z,99.92
2023-04-06T21:40:33.452Z,99.85
2023-04-06T21:45:41.347Z,99.83
2023-04-06T21:52:54.381Z,99.79
2023-04-06T21:58:01.905Z,99.66
2023-04-06T22:03:09.533Z,99.62
2023-04-06T22:08:25.515Z,99.83
2023-04-06T22:13:38.217Z,100.00
2023-04-06T22:18:45.670Z,99.96
2023-04-06T22:23:53.179Z,99.86
2023-04-06T22:28:58.908Z,99.97
2023-04-06T22:34:06.943Z,99.86
2023-04-06T22:39:14.440Z,99.91
2023-04-06T22:44:20.390Z,99.97
2023-04-06T22:54:37.186Z,99.92
2023-04-06T22:59:42.734Z,99.97
2023-04-06T23:04:50.028Z,100.00
2023-04-06T23:09:56.298Z,100.00
2023-04-06T23:15:03.330Z,100.00
2023-04-06T23:20:10.252Z,100.00
2023-04-06T23:25:17.498Z,100.00
2023-04-06T23:30:23.264Z,100.00
2023-04-06T23:35:30.772Z,100.00
2023-04-06T23:40:40.434Z,100.00
2023-04-06T23:45:47.735Z,100.00
2023-04-06T23:50:54.835Z,100.00
2023-04-06T23:56:02.146Z,100.00
